Flag for USA

Past Weather in 41°51'28.1"N, 87°38'58.5"W, USA — Yesterday and Last 2 Weeks

Currently: 67 °F. Scattered clouds. (Weather station: Chicago Midway Airport, USA). See more current weather

Past Weather in 41°51'28.1"N, 87°38'58.5"W — Graph

°F

41°51'28.1"N, 87°38'58.5"W Temperature Yesterday

Maximum temperature yesterday: 69 °F (at 12:53 pm)
Minimum temperature yesterday: 54 °F (at 2:53 am)
Average temperature yesterday: 62 °F

High & Low Weather Summary for the Past Weeks

 TemperatureHumidityPressure
High94 °F (Sep 20, 4:53 pm)87% (Sep 19, 3:53 am)30.53 "Hg (Sep 19, 3:53 am)
Low48 °F (Sep 29, 1:53 am)34% (Sep 21, 4:53 pm)29.68 "Hg (Sep 25, 4:53 am)
Average65 °F60%30.06 "Hg
* Reported Sep 17 2:53 pm — Oct 2 1:07 pm, 41°51'28.1"N, 87°38'58.5"W. Weather by CustomWeather, © 2022

Note: Actual official high and low records may vary slightly from our data, if they occured in-between our weather recording intervals... More about our weather records

41°51'28.1"N, 87°38'58.5"W Weather History for the Previous 24 Hours

Scroll right to see more
 ConditionsComfort  
Time TempWeatherWind HumidityBarometerVisibility
1:07 pm
Sun, Oct 2
67 °FScattered clouds.14 mph57%30.37 "Hg10 mi
12:53 pm67 °FPartly sunny.14 mph59%30.36 "Hg10 mi
11:53 am65 °FPartly sunny.13 mph63%30.37 "Hg10 mi
10:53 am65 °FPartly sunny.12 mph66%30.36 "Hg10 mi
9:53 am63 °FPartly sunny.12 mph70%30.34 "Hg10 mi
8:53 am62 °FPartly sunny.10 mph70%30.33 "Hg10 mi
7:53 am61 °FPartly sunny.13 mph75%30.31 "Hg10 mi
6:53 am61 °FPartly sunny.10 mph75%30.29 "Hg10 mi
6:15 am61 °FOvercast.12 mph75%30.29 "Hg10 mi
5:53 am60 °FPassing clouds.9 mph78%30.27 "Hg10 mi
4:53 am60 °FPassing clouds.9 mph75%30.26 "Hg10 mi
3:53 am61 °FClear.10 mph70%30.25 "Hg10 mi
2:53 am61 °FClear.9 mph62%30.24 "Hg10 mi
1:53 am59 °FClear.5 mph81%30.24 "Hg10 mi
12:53 am60 °FClear.6 mph78%30.23 "Hg10 mi
11:53 pm
Sat, Oct 1
60 °FClear.7 mph75%30.23 "Hg10 mi
10:53 pm61 °FClear.9 mph72%30.23 "Hg10 mi
9:53 pm61 °FClear.10 mph70%30.22 "Hg10 mi
8:53 pm61 °FClear.9 mph67%30.22 "Hg10 mi
7:53 pm62 °FClear.9 mph60%30.21 "Hg10 mi
5:53 pm66 °FSunny.16 mph45%30.19 "Hg10 mi
4:53 pm68 °FSunny.15 mph40%30.19 "Hg10 mi
3:53 pm69 °FSunny.13 mph41%30.19 "Hg10 mi
2:53 pm69 °FSunny.17 mph41%30.19 "Hg10 mi
Weather by CustomWeather, © 2022

See weather overview